Time;durP1;ratioP1;P1;durP2;ratioP2;P2;SDS_P1;SDS_P2;PMS_P1;PMS_P2;Temp;Humidity;BMP_temperature;BMP_pressure;BME280_temperature;BME280_humidity;BME280_pressure;Samples;Min_cycle;Max_cycle;Signal;HPM_P1;HPM_P2
2024/03/11 00:01:12;;;;;;;16.00;14.30;;;10.80;99.90;;;;;;5084891;28;20163;-82
2024/03/11 00:03:38;;;;;;;15.77;13.97;;;10.80;99.90;;;;;;5083398;28;20196;-82
2024/03/11 00:06:05;;;;;;;13.57;12.17;;;10.90;99.90;;;;;;5081409;28;20202;-81
2024/03/11 00:08:31;;;;;;;14.50;12.97;;;10.80;99.90;;;;;;5083419;28;20255;-81
2024/03/11 00:11:00;;;;;;;14.77;13.27;;;10.80;99.90;;;;;;5082434;28;20226;-81
2024/03/11 00:13:32;;;;;;;16.57;14.53;;;10.90;99.90;;;;;;5082213;28;20160;-83
2024/03/11 00:16:02;;;;;;;15.47;13.77;;;10.80;99.90;;;;;;5082018;28;20631;-82
2024/03/11 00:18:28;;;;;;;15.10;13.60;;;10.80;99.90;;;;;;5082313;28;20195;-81
2024/03/11 00:20:57;;;;;;;15.90;14.20;;;10.80;99.90;;;;;;5083536;28;20206;-82
2024/03/11 00:23:23;;;;;;;14.60;13.10;;;10.80;99.90;;;;;;5085359;28;20182;-81
2024/03/11 00:25:49;;;;;;;15.03;12.83;;;10.90;99.90;;;;;;5078612;28;20168;-81
2024/03/11 00:28:16;;;;;;;13.50;12.10;;;10.70;99.90;;;;;;5071712;28;20187;-82
2024/03/11 00:30:42;;;;;;;13.43;11.87;;;10.60;99.90;;;;;;5081252;28;20235;-81
2024/03/11 00:33:09;;;;;;;13.03;11.73;;;10.60;99.90;;;;;;5081202;28;20224;-82
2024/03/11 00:35:35;;;;;;;13.03;11.63;;;10.90;99.90;;;;;;5072224;28;20254;-82
2024/03/11 00:38:02;;;;;;;13.23;11.73;;;10.80;99.90;;;;;;5085299;28;20191;-81
2024/03/11 00:40:29;;;;;;;12.27;10.73;;;10.80;99.90;;;;;;5080573;28;20222;-82
2024/03/11 00:42:55;;;;;;;11.93;10.73;;;10.80;99.90;;;;;;5072607;28;20205;-81
2024/03/11 00:45:23;;;;;;;12.50;10.57;;;10.90;99.90;;;;;;5077612;28;20170;-82
2024/03/11 00:47:49;;;;;;;11.80;10.13;;;10.80;99.90;;;;;;5091873;28;20168;-81
2024/03/11 00:50:14;;;;;;;11.87;10.57;;;10.80;99.90;;;;;;5076399;28;20181;-81
2024/03/11 00:52:41;;;;;;;12.33;10.40;;;10.70;99.90;;;;;;5083215;28;20165;-82
2024/03/11 00:55:08;;;;;;;12.77;10.80;;;10.80;99.90;;;;;;5082808;28;20212;-81
2024/03/11 00:57:37;;;;;;;12.43;11.13;;;10.80;99.90;;;;;;5070719;28;20679;-81
2024/03/11 01:00:11;;;;;;;13.40;10.57;;;10.80;99.90;;;;;;5071804;28;20172;-81
2024/03/11 01:02:37;;;;;;;12.00;10.70;;;10.80;99.90;;;;;;5088090;28;20332;-82
2024/03/11 01:05:08;;;;;;;11.67;9.97;;;10.90;99.90;;;;;;5071347;28;20175;-82
2024/03/11 01:07:35;;;;;;;12.57;11.27;;;10.80;99.90;;;;;;5077044;28;20503;-82
2024/03/11 01:10:02;;;;;;;12.63;11.33;;;10.70;99.90;;;;;;5091612;28;20168;-81
2024/03/11 01:12:29;;;;;;;13.27;11.87;;;10.60;99.90;;;;;;5091538;28;20677;-81
2024/03/11 01:14:55;;;;;;;12.83;11.17;;;10.50;99.90;;;;;;5071479;28;20685;-82
2024/03/11 01:17:21;;;;;;;13.30;11.90;;;10.50;99.90;;;;;;5070497;28;20168;-82
2024/03/11 01:19:47;;;;;;;13.23;11.07;;;10.50;99.90;;;;;;5084623;28;20183;-81
2024/03/11 01:22:13;;;;;;;14.97;12.37;;;10.50;99.90;;;;;;5080071;28;20156;-82
2024/03/11 01:24:39;;;;;;;14.97;12.50;;;10.50;99.90;;;;;;5078429;28;20260;-81
2024/03/11 01:27:14;;;;;;;14.30;12.33;;;10.50;99.90;;;;;;5072177;28;20165;-82
2024/03/11 01:29:41;;;;;;;13.80;12.20;;;10.50;99.90;;;;;;5091807;28;20203;-82
2024/03/11 01:32:11;;;;;;;14.50;12.13;;;10.50;99.90;;;;;;5082389;28;20175;-81
2024/03/11 01:34:38;;;;;;;15.20;13.33;;;10.60;99.90;;;;;;5071001;28;20246;-81
2024/03/11 01:37:06;;;;;;;15.07;13.47;;;10.60;99.90;;;;;;5086432;28;20163;-82
2024/03/11 01:39:44;;;;;;;15.63;13.33;;;10.60;99.90;;;;;;5091835;28;20267;-80
2024/03/11 01:42:15;;;;;;;16.13;13.50;;;10.50;99.90;;;;;;5089597;28;20175;-79
2024/03/11 01:44:47;;;;;;;15.07;13.47;;;10.50;99.90;;;;;;5082708;28;20160;-81
2024/03/11 01:47:14;;;;;;;15.47;13.83;;;10.50;99.90;;;;;;5091841;28;20644;-82
2024/03/11 01:49:43;;;;;;;15.97;13.97;;;10.60;99.90;;;;;;5090688;28;20637;-81
2024/03/11 01:52:14;;;;;;;15.43;13.80;;;10.50;99.90;;;;;;5074166;28;20639;-81
2024/03/11 01:54:41;;;;;;;16.17;13.90;;;10.50;99.90;;;;;;5083225;28;20207;-81
2024/03/11 01:57:08;;;;;;;16.27;14.53;;;10.40;99.90;;;;;;5080597;28;20267;-81
2024/03/11 01:59:37;;;;;;;15.43;13.83;;;10.50;99.90;;;;;;5070865;28;20550;-81
2024/03/11 02:02:07;;;;;;;16.27;14.57;;;10.50;99.90;;;;;;5085550;28;20168;-81
2024/03/11 02:04:35;;;;;;;15.77;14.13;;;10.50;99.90;;;;;;5082064;28;20194;-81
2024/03/11 02:07:03;;;;;;;15.80;14.03;;;10.50;99.90;;;;;;5085917;28;20210;-82
2024/03/11 02:09:34;;;;;;;15.20;13.60;;;10.40;99.90;;;;;;5078005;28;20633;-81
2024/03/11 02:12:00;;;;;;;16.33;14.63;;;10.30;99.90;;;;;;5070628;28;20219;-82
2024/03/11 02:14:26;;;;;;;16.33;14.53;;;10.30;99.90;;;;;;5072391;28;20254;-82
2024/03/11 02:16:52;;;;;;;16.80;14.57;;;10.30;99.90;;;;;;5082772;28;20176;-81
2024/03/11 02:19:18;;;;;;;14.73;13.20;;;10.20;99.90;;;;;;5090911;28;20167;-80
2024/03/11 02:21:47;;;;;;;15.63;13.87;;;10.30;99.90;;;;;;5090803;28;20540;-82
2024/03/11 02:24:16;;;;;;;15.43;13.83;;;10.20;99.90;;;;;;5082178;28;20169;-81
2024/03/11 02:26:48;;;;;;;14.87;13.27;;;10.20;99.90;;;;;;5079933;28;20700;-80
2024/03/11 02:29:17;;;;;;;13.27;11.90;;;10.20;99.90;;;;;;5082480;28;20198;-81
2024/03/11 02:31:44;;;;;;;12.63;11.33;;;10.20;99.90;;;;;;5083077;28;20545;-82
2024/03/11 02:34:12;;;;;;;13.77;12.17;;;10.20;99.90;;;;;;5084469;28;20210;-81
2024/03/11 02:36:46;;;;;;;12.20;11.00;;;10.30;99.90;;;;;;5084951;28;20172;-81
2024/03/11 02:39:15;;;;;;;15.00;11.80;;;10.20;99.90;;;;;;5082244;28;20694;-81
2024/03/11 02:41:43;;;;;;;12.70;11.40;;;10.20;99.90;;;;;;5084663;28;20168;-81
2024/03/11 02:44:09;;;;;;;13.37;11.97;;;10.30;99.90;;;;;;5088522;28;20191;-82
2024/03/11 02:46:35;;;;;;;15.13;13.53;;;10.20;99.90;;;;;;5083519;28;20261;-81
2024/03/11 02:49:01;;;;;;;15.13;13.60;;;10.10;99.90;;;;;;5083299;28;20163;-80
2024/03/11 02:51:30;;;;;;;15.40;13.80;;;10.00;99.90;;;;;;5084659;28;20326;-81
2024/03/11 02:53:56;;;;;;;15.63;13.73;;;9.90;99.90;;;;;;5081253;28;20190;-80
2024/03/11 02:56:23;;;;;;;17.83;14.57;;;9.80;99.90;;;;;;5083538;28;20539;-80
2024/03/11 02:58:49;;;;;;;15.03;12.77;;;9.80;99.90;;;;;;5083687;28;20172;-81
2024/03/11 03:01:16;;;;;;;16.33;14.57;;;9.60;99.90;;;;;;5084771;28;20217;-81
2024/03/11 03:03:43;;;;;;;15.87;14.00;;;9.50;99.90;;;;;;5083204;28;20226;-81
2024/03/11 03:06:08;;;;;;;15.77;14.07;;;9.60;99.90;;;;;;5082886;28;20235;-81
2024/03/11 03:08:35;;;;;;;17.47;15.07;;;9.50;99.90;;;;;;5083988;28;20195;-81
2024/03/11 03:11:04;;;;;;;13.37;11.53;;;9.60;99.90;;;;;;5081542;28;20172;-82
2024/03/11 03:13:30;;;;;;;15.60;13.47;;;9.50;99.90;;;;;;5083515;28;20655;-83
2024/03/11 03:15:56;;;;;;;13.57;11.97;;;9.50;99.90;;;;;;5081309;28;20180;-82
2024/03/11 03:18:23;;;;;;;15.30;13.70;;;9.60;99.90;;;;;;5083800;28;20164;-81
2024/03/11 03:20:49;;;;;;;15.30;13.17;;;9.60;99.90;;;;;;5082215;28;20177;-81
2024/03/11 03:23:15;;;;;;;15.43;13.33;;;9.60;99.90;;;;;;5084450;28;20193;-81
2024/03/11 03:25:41;;;;;;;14.70;13.10;;;9.70;99.90;;;;;;5082356;28;20172;-80
2024/03/11 03:28:06;;;;;;;17.93;14.80;;;9.60;99.90;;;;;;5084209;28;20171;-82
2024/03/11 03:30:32;;;;;;;15.67;13.97;;;9.60;99.90;;;;;;5083002;28;20540;-83
2024/03/11 03:32:59;;;;;;;18.50;15.20;;;9.60;99.90;;;;;;5082630;28;20175;-82
2024/03/11 03:35:25;;;;;;;18.87;14.97;;;9.60;99.90;;;;;;5082978;28;20199;-80
2024/03/11 03:37:52;;;;;;;17.90;15.20;;;9.70;99.90;;;;;;5082218;28;20164;-81
2024/03/11 03:40:17;;;;;;;18.10;15.17;;;9.60;99.90;;;;;;5081297;28;20175;-81
2024/03/11 03:42:46;;;;;;;20.63;16.97;;;9.60;99.90;;;;;;5083760;28;20180;-80
2024/03/11 03:45:12;;;;;;;21.27;17.23;;;9.70;99.90;;;;;;5082472;28;20204;-81
2024/03/11 03:47:38;;;;;;;23.37;17.03;;;9.60;99.90;;;;;;5073064;28;20172;-80
2024/03/11 03:50:04;;;;;;;20.70;16.70;;;9.60;99.90;;;;;;5073688;28;20257;-82
2024/03/11 03:52:30;;;;;;;21.10;17.17;;;9.70;99.90;;;;;;5072892;28;20625;-81
2024/03/11 03:54:55;;;;;;;20.53;17.33;;;9.70;99.90;;;;;;5073076;28;20227;-82
2024/03/11 03:57:26;;;;;;;22.37;18.13;;;9.70;99.90;;;;;;5074201;28;20183;-82
2024/03/11 03:59:55;;;;;;;22.17;18.37;;;9.80;99.90;;;;;;5074128;28;20258;-81
2024/03/11 04:02:21;;;;;;;26.17;19.47;;;9.80;99.90;;;;;;5073519;28;20208;-82
2024/03/11 04:04:47;;;;;;;21.73;18.50;;;9.80;99.90;;;;;;5071376;28;20218;-82
2024/03/11 04:07:13;;;;;;;24.33;18.77;;;9.80;99.90;;;;;;5071962;28;20187;-81
2024/03/11 04:09:39;;;;;;;24.20;19.40;;;9.80;99.90;;;;;;5074237;28;20206;-82
2024/03/11 04:12:06;;;;;;;24.73;19.90;;;9.80;99.90;;;;;;5072578;28;20172;-82
2024/03/11 04:14:37;;;;;;;26.67;19.00;;;9.80;99.90;;;;;;5072469;28;20211;-81
2024/03/11 04:17:06;;;;;;;24.50;18.23;;;9.70;99.90;;;;;;5072664;28;20168;-82
2024/03/11 04:19:31;;;;;;;24.33;19.27;;;9.70;99.90;;;;;;5072437;28;20563;-82
2024/03/11 04:21:57;;;;;;;23.60;18.43;;;9.70;99.90;;;;;;5072267;28;20234;-81
2024/03/11 04:24:25;;;;;;;22.30;17.07;;;9.70;99.90;;;;;;5071015;28;20542;-81
2024/03/11 04:26:51;;;;;;;24.87;18.83;;;9.70;99.90;;;;;;5072230;28;20173;-80
2024/03/11 04:29:18;;;;;;;21.30;18.63;;;9.70;99.90;;;;;;5071492;28;20659;-82
2024/03/11 04:31:44;;;;;;;23.97;19.43;;;9.70;99.90;;;;;;5073711;28;20169;-82
2024/03/11 04:34:10;;;;;;;23.00;19.63;;;9.70;99.90;;;;;;5072140;28;20321;-80
2024/03/11 04:36:36;;;;;;;22.33;17.83;;;9.70;99.90;;;;;;5076339;28;20650;-81
2024/03/11 04:39:04;;;;;;;22.93;19.10;;;9.60;99.90;;;;;;5091750;28;20199;-82
2024/03/11 04:41:31;;;;;;;24.93;19.57;;;9.70;99.90;;;;;;5092392;28;20164;-83
2024/03/11 04:43:58;;;;;;;26.37;20.07;;;9.70;99.90;;;;;;5091083;28;20175;-81
2024/03/11 04:46:24;;;;;;;25.03;19.73;;;9.70;99.90;;;;;;5093737;28;20632;-81
2024/03/11 04:48:51;;;;;;;28.57;20.80;;;9.60;99.90;;;;;;5092699;28;20225;-79
2024/03/11 04:51:17;;;;;;;25.87;20.53;;;9.60;99.90;;;;;;5093230;28;20176;-81
2024/03/11 04:53:44;;;;;;;27.60;21.20;;;9.60;99.90;;;;;;5092185;28;20178;-81
2024/03/11 04:56:10;;;;;;;27.40;20.83;;;9.60;99.90;;;;;;5092524;28;20184;-81
2024/03/11 04:58:38;;;;;;;26.63;21.00;;;9.60;99.90;;;;;;5092599;28;20163;-82
2024/03/11 05:01:07;;;;;;;26.40;21.00;;;9.60;99.90;;;;;;5094953;28;20206;-82
2024/03/11 05:03:33;;;;;;;26.47;21.50;;;9.60;99.90;;;;;;5093565;28;20183;-81
2024/03/11 05:06:00;;;;;;;28.10;22.07;;;9.60;99.90;;;;;;5094399;28;20520;-81
2024/03/11 05:08:26;;;;;;;30.20;20.73;;;9.60;99.90;;;;;;5092606;28;20383;-80
2024/03/11 05:10:52;;;;;;;28.30;21.07;;;9.50;99.90;;;;;;5091375;28;20627;-81
2024/03/11 05:13:18;;;;;;;28.50;21.60;;;9.50;99.90;;;;;;5091616;28;20534;-81
2024/03/11 05:15:47;;;;;;;32.10;24.17;;;9.60;99.90;;;;;;5091452;28;20208;-81
2024/03/11 05:18:16;;;;;;;31.17;23.70;;;9.60;99.90;;;;;;5090748;28;20172;-81
2024/03/11 05:20:42;;;;;;;32.03;24.83;;;9.60;99.90;;;;;;5090326;28;20636;-82
2024/03/11 05:23:08;;;;;;;32.60;24.33;;;9.60;99.90;;;;;;5092857;28;20612;-80
2024/03/11 05:25:34;;;;;;;31.50;24.47;;;9.70;99.90;;;;;;5090432;28;20179;-82
2024/03/11 05:28:00;;;;;;;31.20;22.97;;;9.60;99.90;;;;;;5090330;28;20242;-81
2024/03/11 05:30:29;;;;;;;35.10;26.33;;;9.70;99.90;;;;;;5091964;28;20206;-81
2024/03/11 05:32:55;;;;;;;31.20;23.90;;;9.80;99.90;;;;;;5092556;28;20175;-82
2024/03/11 05:35:21;;;;;;;35.10;26.60;;;9.80;99.90;;;;;;5090714;28;20229;-82
2024/03/11 05:37:48;;;;;;;32.93;25.20;;;9.80;99.90;;;;;;5090780;28;20179;-81
2024/03/11 05:40:14;;;;;;;33.67;26.60;;;9.70;99.90;;;;;;5090574;28;20536;-80
2024/03/11 05:42:42;;;;;;;35.47;26.57;;;9.80;99.90;;;;;;5091330;28;20171;-82
2024/03/11 05:45:08;;;;;;;36.00;26.70;;;9.90;99.90;;;;;;5090019;28;20174;-80
2024/03/11 05:47:34;;;;;;;35.53;26.30;;;9.90;99.90;;;;;;5091331;28;20203;-82
2024/03/11 05:50:02;;;;;;;34.23;25.70;;;9.90;99.90;;;;;;5090205;28;20187;-82
2024/03/11 05:52:28;;;;;;;33.07;26.07;;;9.90;99.90;;;;;;5090566;28;20199;-80
2024/03/11 05:54:56;;;;;;;35.83;25.47;;;9.80;99.90;;;;;;5091243;28;20214;-82
2024/03/11 05:57:25;;;;;;;31.77;25.10;;;9.80;99.90;;;;;;5090477;28;20163;-82
2024/03/11 05:59:51;;;;;;;34.07;24.80;;;9.80;99.90;;;;;;5091228;28;20160;-81
2024/03/11 06:02:18;;;;;;;29.00;23.00;;;9.70;99.90;;;;;;5089774;28;20183;-82
2024/03/11 06:04:44;;;;;;;31.33;23.10;;;9.70;99.90;;;;;;5094902;28;20178;-82
2024/03/11 06:07:10;;;;;;;30.57;23.40;;;9.70;99.90;;;;;;5095266;28;20175;-81
2024/03/11 06:09:36;;;;;;;30.60;23.90;;;9.80;99.90;;;;;;5096861;28;20217;-81
2024/03/11 06:12:03;;;;;;;33.60;24.47;;;9.80;99.90;;;;;;5094805;28;20266;-82
2024/03/11 06:14:28;;;;;;;30.87;23.63;;;9.80;99.90;;;;;;5095393;28;20215;-81
2024/03/11 06:16:54;;;;;;;30.83;22.83;;;9.80;99.90;;;;;;5096878;28;20527;-81
2024/03/11 06:19:20;;;;;;;31.23;23.10;;;9.80;99.90;;;;;;5095138;28;20972;-82
2024/03/11 06:21:48;;;;;;;29.80;22.50;;;9.90;99.90;;;;;;5095068;28;20179;-82
2024/03/11 06:24:14;;;;;;;30.57;23.03;;;9.80;99.90;;;;;;5096480;28;20178;-81
2024/03/11 06:26:40;;;;;;;28.60;22.13;;;9.80;99.90;;;;;;5095844;28;20184;-82
2024/03/11 06:29:06;;;;;;;27.03;21.13;;;9.90;99.90;;;;;;5095682;28;20174;-81
2024/03/11 06:31:38;;;;;;;25.50;20.40;;;9.80;99.90;;;;;;5095587;28;20171;-82
2024/03/11 06:34:07;;;;;;;29.13;21.80;;;9.80;99.90;;;;;;5095594;28;20242;-82
2024/03/11 06:36:34;;;;;;;27.83;21.27;;;9.90;99.90;;;;;;5095396;28;20221;-83
2024/03/11 06:38:59;;;;;;;29.77;23.13;;;9.80;99.90;;;;;;5094927;28;20660;-83
2024/03/11 06:41:25;;;;;;;26.93;20.97;;;9.80;99.90;;;;;;5094494;28;20171;-81
2024/03/11 06:43:51;;;;;;;28.17;20.80;;;9.90;99.90;;;;;;5095043;28;20176;-82
2024/03/11 06:46:18;;;;;;;28.53;21.53;;;10.00;99.90;;;;;;5096207;28;20217;-81
2024/03/11 06:48:44;;;;;;;26.80;21.00;;;9.90;99.90;;;;;;5097767;28;20171;-80
2024/03/11 06:51:11;;;;;;;27.33;20.10;;;9.90;99.90;;;;;;5094806;28;20176;-89
2024/03/11 06:53:38;;;;;;;27.60;21.30;;;9.90;99.90;;;;;;5094657;28;20186;-81
2024/03/11 06:56:07;;;;;;;27.03;19.53;;;9.90;99.90;;;;;;5093642;28;20215;-82
2024/03/11 06:58:38;;;;;;;26.87;19.73;;;9.90;99.90;;;;;;5093825;28;20171;-82
2024/03/11 07:01:07;;;;;;;25.60;19.83;;;9.80;99.90;;;;;;5094953;28;20176;-83
2024/03/11 07:03:41;;;;;;;28.37;18.90;;;9.90;99.90;;;;;;5092942;28;20189;-85
2024/03/11 07:06:09;;;;;;;24.57;18.97;;;10.00;99.90;;;;;;5093947;28;20244;-83
2024/03/11 07:08:36;;;;;;;24.43;18.93;;;10.00;99.90;;;;;;5093805;28;20171;-80
2024/03/11 07:11:02;;;;;;;24.03;18.10;;;9.90;99.90;;;;;;5103363;28;20172;-85
2024/03/11 07:13:29;;;;;;;24.70;18.07;;;9.90;99.90;;;;;;5095779;28;20168;-84
2024/03/11 07:15:56;;;;;;;21.70;16.27;;;10.00;99.90;;;;;;5094262;28;20204;-86
2024/03/11 07:18:21;;;;;;;22.33;17.30;;;9.80;99.90;;;;;;5092283;28;20258;-82
2024/03/11 07:20:52;;;;;;;20.97;15.07;;;9.90;99.90;;;;;;5092793;28;20247;-83
2024/03/11 07:23:19;;;;;;;21.40;15.93;;;9.90;99.90;;;;;;5093003;28;20583;-84
2024/03/11 07:25:45;;;;;;;22.13;16.67;;;9.80;99.90;;;;;;5095758;28;20239;-84
2024/03/11 07:28:12;;;;;;;23.60;17.20;;;9.80;99.90;;;;;;5093577;28;20239;-82
2024/03/11 07:30:39;;;;;;;22.63;17.10;;;9.80;99.90;;;;;;5094022;28;20171;-83
2024/03/11 07:33:06;;;;;;;23.67;16.40;;;9.80;99.90;;;;;;5093840;28;20243;-82
2024/03/11 07:35:37;;;;;;;22.53;16.47;;;9.80;99.90;;;;;;5091965;28;20215;-83
2024/03/11 07:38:05;;;;;;;23.57;18.20;;;9.80;99.90;;;;;;5092863;28;20171;-83
2024/03/11 07:40:31;;;;;;;24.80;18.87;;;9.90;99.90;;;;;;5093142;28;20695;-84
2024/03/11 07:42:58;;;;;;;22.93;17.27;;;10.00;99.90;;;;;;5092244;28;20164;-84
2024/03/11 07:45:24;;;;;;;24.23;17.83;;;9.90;99.90;;;;;;5093378;28;20225;-84
2024/03/11 07:47:52;;;;;;;23.13;16.80;;;10.00;99.90;;;;;;5092677;28;20168;-84
2024/03/11 07:50:19;;;;;;;21.40;16.60;;;10.00;99.90;;;;;;5092971;28;20179;-82
2024/03/11 07:52:44;;;;;;;24.97;18.50;;;10.00;99.90;;;;;;5092971;28;20171;-82
2024/03/11 07:55:10;;;;;;;20.50;15.77;;;10.10;99.90;;;;;;5095069;28;20732;-84
2024/03/11 07:57:36;;;;;;;21.03;16.83;;;10.20;99.90;;;;;;5093582;28;20179;-84
2024/03/11 08:00:08;;;;;;;20.50;16.53;;;10.20;99.90;;;;;;5092840;28;20178;-84
2024/03/11 08:02:33;;;;;;;19.10;15.33;;;10.00;99.90;;;;;;5092570;28;20183;-83
2024/03/11 08:05:01;;;;;;;21.23;16.63;;;10.00;99.90;;;;;;5093503;28;20176;-83
2024/03/11 08:07:32;;;;;;;21.73;16.53;;;10.00;99.90;;;;;;5093018;28;20194;-85
2024/03/11 08:10:01;;;;;;;18.47;15.40;;;10.10;99.90;;;;;;5092548;28;20164;-84
2024/03/11 08:12:28;;;;;;;26.63;19.33;;;10.10;99.90;;;;;;5094011;28;20204;-85
2024/03/11 08:14:54;;;;;;;20.17;16.03;;;10.20;99.90;;;;;;5092293;28;20210;-85
2024/03/11 08:17:20;;;;;;;19.70;15.87;;;10.20;99.90;;;;;;5092608;28;20251;-85
2024/03/11 08:19:46;;;;;;;22.33;17.77;;;10.10;99.90;;;;;;5092284;28;20598;-85
2024/03/11 08:22:16;;;;;;;19.43;16.40;;;10.10;99.90;;;;;;5092448;28;20207;-83
2024/03/11 08:24:45;;;;;;;37.77;29.07;;;10.10;99.90;;;;;;5091872;28;20175;-84
2024/03/11 08:27:13;;;;;;;23.27;17.50;;;10.10;99.90;;;;;;5091304;28;20183;-84
2024/03/11 08:29:40;;;;;;;22.77;17.07;;;10.20;99.90;;;;;;5092420;28;20229;-84
2024/03/11 08:32:05;;;;;;;24.13;18.10;;;10.10;99.90;;;;;;5092225;28;20174;-84
2024/03/11 08:34:31;;;;;;;21.57;17.47;;;10.20;99.90;;;;;;5093677;28;20207;-82
2024/03/11 08:36:57;;;;;;;21.50;17.37;;;10.20;99.90;;;;;;5093784;28;20180;-83
2024/03/11 08:39:24;;;;;;;21.93;17.07;;;10.10;99.90;;;;;;5092173;28;20201;-83
2024/03/11 08:41:53;;;;;;;32.10;24.10;;;10.10;99.90;;;;;;5092993;28;20176;-84
2024/03/11 08:44:19;;;;;;;24.27;17.40;;;10.00;99.90;;;;;;5092998;28;20209;-84
2024/03/11 08:46:45;;;;;;;25.37;21.33;;;10.10;99.90;;;;;;5091622;28;20573;-84
2024/03/11 08:49:11;;;;;;;22.90;19.20;;;10.10;99.90;;;;;;5091576;28;20516;-84
2024/03/11 08:51:40;;;;;;;20.37;16.80;;;10.10;99.90;;;;;;5093204;28;20176;-84
2024/03/11 08:54:07;;;;;;;20.53;16.50;;;10.20;99.90;;;;;;5091833;28;20270;-85
2024/03/11 08:56:33;;;;;;;41.47;30.60;;;10.20;99.90;;;;;;5090864;28;20248;-84
2024/03/11 08:59:00;;;;;;;28.23;21.87;;;10.10;99.90;;;;;;5091577;28;20652;-83
2024/03/11 09:01:29;;;;;;;40.03;26.50;;;10.20;99.90;;;;;;5091382;28;20175;-83
2024/03/11 09:03:55;;;;;;;21.70;16.93;;;10.20;99.90;;;;;;5092170;28;20180;-85
2024/03/11 09:06:22;;;;;;;19.87;15.97;;;10.00;99.90;;;;;;5091543;28;20513;-83
2024/03/11 09:08:49;;;;;;;22.00;16.83;;;10.10;99.90;;;;;;5091303;28;20176;-84
2024/03/11 09:11:15;;;;;;;32.23;28.20;;;10.20;99.90;;;;;;5091414;28;20190;-85
2024/03/11 09:13:44;;;;;;;35.10;29.50;;;10.20;99.90;;;;;;5091324;28;20659;-84
2024/03/11 09:16:10;;;;;;;37.13;28.53;;;10.30;99.90;;;;;;5091501;28;20259;-84
2024/03/11 09:18:38;;;;;;;18.40;15.40;;;10.40;99.90;;;;;;5091012;28;20180;-84
2024/03/11 09:21:05;;;;;;;42.20;26.87;;;10.40;99.90;;;;;;5091242;28;20187;-84
2024/03/11 09:23:31;;;;;;;18.97;15.60;;;10.20;99.90;;;;;;5091633;28;20262;-86
2024/03/11 09:26:01;;;;;;;19.73;17.03;;;10.20;99.90;;;;;;5091862;28;20175;-84
2024/03/11 09:28:28;;;;;;;18.87;15.20;;;10.20;99.90;;;;;;5091479;28;20168;-83
2024/03/11 09:30:54;;;;;;;21.87;18.77;;;10.20;99.90;;;;;;5090904;28;20236;-84
2024/03/11 09:33:21;;;;;;;23.40;18.17;;;10.20;99.90;;;;;;5090990;28;20589;-83
2024/03/11 09:35:47;;;;;;;16.73;13.73;;;10.20;99.90;;;;;;5092881;28;20207;-85
2024/03/11 09:38:13;;;;;;;20.73;15.63;;;10.30;99.90;;;;;;5091288;28;20194;-84
2024/03/11 09:40:39;;;;;;;206.53;66.10;;;10.30;99.90;;;;;;5090641;28;20187;-83
2024/03/11 09:43:06;;;;;;;29.30;20.37;;;10.20;99.90;;;;;;5091337;28;20232;-85
2024/03/11 09:45:34;;;;;;;20.93;16.77;;;10.20;99.90;;;;;;5091026;28;20176;-86
2024/03/11 09:48:04;;;;;;;16.87;14.03;;;10.30;99.90;;;;;;5090243;28;20168;-84
2024/03/11 09:50:32;;;;;;;16.97;14.30;;;10.30;99.90;;;;;;5091770;28;20256;-84
2024/03/11 09:53:18;;;;;;;18.80;14.90;;;10.30;99.90;;;;;;5091061;28;20171;-91
2024/03/11 09:55:44;;;;;;;17.23;13.47;;;10.40;99.90;;;;;;5090141;28;20211;-88
2024/03/11 09:58:12;;;;;;;16.23;13.93;;;10.30;99.90;;;;;;5091306;28;20181;-84
2024/03/11 10:00:49;;;;;;;17.53;14.23;;;10.30;99.90;;;;;;5091049;28;20180;-83
2024/03/11 10:03:21;;;;;;;15.47;13.53;;;10.40;99.90;;;;;;5090074;28;20191;-84
2024/03/11 10:05:54;;;;;;;16.80;13.67;;;10.30;99.90;;;;;;5091093;28;20180;-84
2024/03/11 10:08:25;;;;;;;17.47;13.73;;;10.30;99.90;;;;;;5090348;28;20175;-84
2024/03/11 10:11:17;;;;;;;17.70;13.20;;;10.30;99.90;;;;;;5090092;28;20182;-88
2024/03/11 10:13:43;;;;;;;17.83;14.37;;;10.30;99.90;;;;;;5091186;28;20171;-83
2024/03/11 10:16:17;;;;;;;18.87;14.50;;;10.30;99.90;;;;;;5090262;28;20207;-85
2024/03/11 10:18:53;;;;;;;14.60;12.60;;;10.40;99.90;;;;;;5091441;28;20263;-85
2024/03/11 10:21:19;;;;;;;15.63;13.47;;;10.30;99.90;;;;;;5090639;28;20179;-86
2024/03/11 10:23:48;;;;;;;14.27;12.43;;;10.40;99.90;;;;;;5090545;28;20172;-84
2024/03/11 10:26:17;;;;;;;48.57;22.83;;;10.50;99.90;;;;;;5090863;28;20232;-88
2024/03/11 10:28:47;;;;;;;15.20;12.87;;;10.40;99.90;;;;;;5092035;28;20246;-84
2024/03/11 10:31:27;;;;;;;14.90;12.17;;;10.50;99.90;;;;;;5090784;28;20179;-92
2024/03/11 10:34:09;;;;;;;14.63;12.40;;;10.60;99.90;;;;;;5090444;28;20172;-84
2024/03/11 10:36:36;;;;;;;14.17;11.50;;;10.40;99.90;;;;;;5090756;28;20172;-84
2024/03/11 10:39:09;;;;;;;12.80;10.90;;;10.40;99.90;;;;;;5090463;28;20213;-83
2024/03/11 10:41:38;;;;;;;13.33;11.50;;;10.40;99.90;;;;;;5089596;28;20179;-84
2024/03/11 10:44:15;;;;;;;12.57;11.17;;;10.40;99.90;;;;;;5090974;28;20282;-84
2024/03/11 10:46:41;;;;;;;16.57;13.23;;;10.40;99.90;;;;;;5090202;28;20171;-83
2024/03/11 10:49:14;;;;;;;13.90;12.10;;;10.40;99.90;;;;;;5093095;28;20228;-84
2024/03/11 10:51:45;;;;;;;14.93;12.03;;;10.40;99.90;;;;;;5094497;28;20179;-83
2024/03/11 10:54:28;;;;;;;14.47;11.80;;;10.50;99.90;;;;;;5094512;28;20199;-82
2024/03/11 10:56:58;;;;;;;13.20;11.07;;;10.50;99.90;;;;;;5094064;28;20251;-84
2024/03/11 10:59:29;;;;;;;16.27;13.33;;;10.60;99.90;;;;;;5093667;28;20340;-85
2024/03/11 11:01:59;;;;;;;14.27;12.13;;;10.50;99.90;;;;;;5093620;28;20175;-83
2024/03/11 11:04:33;;;;;;;11.73;10.47;;;10.50;99.90;;;;;;5094103;28;20194;-84
2024/03/11 11:07:00;;;;;;;14.50;12.20;;;10.50;99.90;;;;;;5092431;28;20175;-83
2024/03/11 11:09:27;;;;;;;13.53;11.87;;;10.60;99.90;;;;;;5077167;28;20203;-83
2024/03/11 11:11:54;;;;;;;12.80;11.30;;;10.60;99.90;;;;;;5093945;28;20695;-83
2024/03/11 11:14:27;;;;;;;16.73;12.97;;;10.50;99.90;;;;;;5093412;28;20211;-84
2024/03/11 11:16:55;;;;;;;34.67;21.07;;;10.60;99.90;;;;;;5092956;28;20639;-84
2024/03/11 11:19:34;;;;;;;13.93;11.70;;;10.60;99.90;;;;;;5092639;28;20221;-84
2024/03/11 11:22:06;;;;;;;13.47;11.03;;;10.60;99.90;;;;;;5095030;28;20179;-84
2024/03/11 11:24:39;;;;;;;14.60;11.13;;;10.60;99.90;;;;;;5093557;28;20179;-84
2024/03/11 11:27:13;;;;;;;13.93;11.60;;;10.60;99.90;;;;;;5093511;28;20179;-84
2024/03/11 11:29:40;;;;;;;13.53;10.93;;;10.60;99.90;;;;;;5093022;28;20178;-84
2024/03/11 11:32:07;;;;;;;13.70;11.40;;;10.60;99.90;;;;;;5093169;28;20258;-84
2024/03/11 11:34:45;;;;;;;15.87;11.50;;;10.60;99.90;;;;;;5092847;28;20199;-84
2024/03/11 11:37:19;;;;;;;14.67;11.97;;;10.60;99.90;;;;;;5093659;28;20262;-84
2024/03/11 11:39:46;;;;;;;13.23;10.60;;;10.60;99.90;;;;;;5093406;28;20237;-85
2024/03/11 11:42:34;;;;;;;13.83;11.57;;;10.60;99.90;;;;;;5092594;28;20176;-85
2024/03/11 11:45:00;;;;;;;13.73;11.47;;;10.80;99.90;;;;;;5092203;28;20231;-85
2024/03/11 11:47:27;;;;;;;13.10;11.23;;;10.70;99.90;;;;;;5091889;28;20167;-84
2024/03/11 11:49:54;;;;;;;13.03;10.73;;;10.50;99.90;;;;;;5092581;28;20257;-85
2024/03/11 11:52:22;;;;;;;14.17;11.63;;;10.50;99.90;;;;;;5092657;28;20700;-84
2024/03/11 11:54:50;;;;;;;11.50;10.20;;;10.60;99.90;;;;;;5094497;28;20195;-84
2024/03/11 11:57:19;;;;;;;12.60;11.17;;;10.60;99.90;;;;;;5093126;28;20509;-85
2024/03/11 12:00:03;;;;;;;13.13;11.20;;;10.60;99.90;;;;;;5092635;28;20172;-85
2024/03/11 12:02:39;;;;;;;13.13;10.73;;;10.70;99.90;;;;;;5093943;28;20646;-84
2024/03/11 12:05:06;;;;;;;14.67;12.10;;;10.70;99.90;;;;;;5092855;28;20175;-84
2024/03/11 12:07:38;;;;;;;13.20;11.80;;;10.60;99.90;;;;;;5093183;28;20544;-84
2024/03/11 12:10:06;;;;;;;13.47;11.80;;;10.70;99.90;;;;;;5092757;28;20258;-84
2024/03/11 12:12:34;;;;;;;13.03;11.13;;;10.80;99.90;;;;;;5092979;28;20168;-85
2024/03/11 12:15:01;;;;;;;12.73;11.03;;;10.80;99.90;;;;;;5093127;28;20686;-87
2024/03/11 12:17:29;;;;;;;14.90;12.00;;;10.80;99.90;;;;;;5092599;28;20178;-85
2024/03/11 12:20:15;;;;;;;12.37;10.70;;;10.70;99.90;;;;;;5092840;28;20179;-84
2024/03/11 12:22:42;;;;;;;12.90;10.77;;;10.80;99.90;;;;;;5093292;28;20175;-84
2024/03/11 12:25:13;;;;;;;14.63;12.60;;;10.70;99.90;;;;;;5092408;28;20214;-84
2024/03/11 12:27:54;;;;;;;15.23;13.07;;;10.70;99.90;;;;;;5094205;28;20164;-84
2024/03/11 12:30:24;;;;;;;14.47;12.77;;;10.70;99.90;;;;;;5092215;28;20220;-83
2024/03/11 12:33:05;;;;;;;15.13;12.80;;;10.60;99.90;;;;;;5091343;28;20179;-84
2024/03/11 12:35:33;;;;;;;14.63;11.73;;;10.70;99.90;;;;;;5091776;28;20781;-85